createdAt,value
2018-06-03T00:01:37.173Z,20.17
2018-06-03T00:04:05.508Z,17.35
2018-06-03T00:06:37.081Z,19.25
2018-06-03T00:09:05.357Z,20.25
2018-06-03T00:12:40.299Z,19.57
2018-06-03T00:15:09.614Z,21.10
2018-06-03T00:17:38.900Z,20.32
2018-06-03T00:20:08.492Z,20.02
2018-06-03T00:22:37.757Z,19.50
2018-06-03T00:25:07.061Z,18.95
2018-06-03T00:27:36.389Z,19.35
2018-06-03T00:30:05.645Z,19.35
2018-06-03T00:32:34.931Z,19.77
2018-06-03T00:35:04.331Z,20.65
2018-06-03T00:37:33.577Z,21.55
2018-06-03T00:40:02.832Z,20.23
2018-06-03T00:42:32.095Z,19.42
2018-06-03T00:45:01.377Z,23.80
2018-06-03T00:47:30.606Z,21.12
2018-06-03T00:49:59.843Z,22.05
2018-06-03T00:52:29.251Z,21.30
2018-06-03T00:54:58.667Z,22.02
2018-06-03T00:57:28.066Z,19.25
2018-06-03T00:59:57.341Z,18.60
2018-06-03T01:02:27.364Z,20.12
2018-06-03T01:04:56.606Z,19.52
2018-06-03T01:07:26.780Z,19.55
2018-06-03T01:09:56.045Z,21.05
2018-06-03T01:12:25.293Z,19.48
2018-06-03T01:14:54.560Z,21.35
2018-06-03T01:17:23.798Z,21.87
2018-06-03T01:19:53.350Z,20.48
2018-06-03T01:22:22.692Z,26.30
2018-06-03T01:24:51.945Z,29.05
2018-06-03T01:27:21.257Z,24.60
2018-06-03T01:29:50.511Z,29.45
2018-06-03T01:32:19.757Z,32.83
2018-06-03T01:34:49.034Z,30.05
2018-06-03T01:37:18.293Z,37.25
2018-06-03T01:39:47.599Z,31.55
2018-06-03T01:42:16.910Z,33.40
2018-06-03T01:44:46.481Z,35.80
2018-06-03T01:47:16.024Z,30.43
2018-06-03T01:49:45.213Z,39.45
2018-06-03T01:52:14.467Z,34.50
2018-06-03T01:54:43.809Z,33.53
2018-06-03T01:57:13.086Z,41.40
2018-06-03T01:59:42.400Z,34.80
2018-06-03T02:02:11.675Z,37.93
2018-06-03T02:04:40.932Z,36.85
2018-06-03T02:07:10.158Z,36.08
2018-06-03T02:09:39.409Z,40.10
2018-06-03T02:12:08.687Z,40.58
2018-06-03T02:14:38.004Z,38.55
2018-06-03T02:17:07.270Z,42.75
2018-06-03T02:19:36.524Z,42.03
2018-06-03T02:22:05.999Z,36.70
2018-06-03T02:24:35.235Z,38.73
2018-06-03T02:27:04.538Z,35.55
2018-06-03T02:29:33.766Z,42.40
2018-06-03T02:32:03.016Z,35.17
2018-06-03T02:34:32.226Z,42.48
2018-06-03T02:37:01.860Z,41.53
2018-06-03T02:39:31.804Z,40.65
2018-06-03T02:42:01.067Z,37.08
2018-06-03T02:44:30.289Z,43.20
2018-06-03T02:46:59.542Z,40.88
2018-06-03T02:49:28.760Z,39.80
2018-06-03T02:51:58.025Z,44.25
2018-06-03T02:54:27.280Z,42.70
2018-06-03T02:56:56.521Z,40.73
2018-06-03T02:59:25.807Z,45.50
2018-06-03T03:01:55.171Z,46.37
2018-06-03T03:04:24.443Z,43.20
2018-06-03T03:06:53.653Z,45.43
2018-06-03T03:09:22.896Z,47.05
2018-06-03T03:11:52.261Z,48.28
2018-06-03T03:14:21.507Z,45.90
2018-06-03T03:16:50.781Z,51.45
2018-06-03T03:19:20.024Z,49.58
2018-06-03T03:21:49.296Z,45.17
2018-06-03T03:24:18.513Z,47.25
2018-06-03T03:26:47.780Z,44.20
2018-06-03T03:29:16.715Z,50.28
2018-06-03T03:31:45.809Z,48.70
2018-06-03T03:34:15.054Z,55.23
2018-06-03T03:36:44.298Z,52.30
2018-06-03T03:39:13.824Z,51.53
2018-06-03T03:41:43.059Z,52.05
2018-06-03T03:44:12.358Z,56.95
2018-06-03T03:46:41.620Z,54.18
2018-06-03T03:49:11.592Z,60.40
2018-06-03T03:51:40.900Z,48.63
2018-06-03T03:54:10.195Z,54.77
2018-06-03T03:56:40.065Z,51.28
2018-06-03T03:59:09.316Z,52.48
2018-06-03T04:01:38.584Z,51.25
2018-06-03T04:04:07.884Z,52.48
2018-06-03T04:06:37.221Z,53.35
2018-06-03T04:09:06.913Z,46.85
2018-06-03T04:11:36.259Z,51.50
2018-06-03T04:14:05.761Z,47.67
2018-06-03T04:16:35.571Z,54.38
2018-06-03T04:19:04.918Z,50.65
2018-06-03T04:21:34.309Z,52.60
2018-06-03T04:24:04.137Z,48.87
2018-06-03T04:26:33.508Z,52.45
2018-06-03T04:29:02.764Z,54.55
2018-06-03T04:31:32.106Z,49.80
2018-06-03T04:34:01.397Z,54.00
2018-06-03T04:36:30.705Z,52.13
2018-06-03T04:38:59.911Z,51.77
2018-06-03T04:41:29.159Z,55.58
2018-06-03T04:43:58.371Z,52.10
2018-06-03T04:46:27.628Z,50.25
2018-06-03T04:48:56.889Z,49.33
2018-06-03T04:51:26.364Z,50.67
2018-06-03T04:53:55.611Z,49.53
2018-06-03T04:56:24.899Z,53.98
2018-06-03T04:58:54.268Z,58.65
2018-06-03T05:01:23.494Z,54.70
2018-06-03T05:03:52.748Z,54.67
2018-06-03T05:06:21.969Z,53.85
2018-06-03T05:08:51.319Z,52.30
2018-06-03T05:11:20.577Z,54.30
2018-06-03T05:16:23.593Z,52.73
2018-06-03T05:18:52.823Z,52.00
2018-06-03T05:21:22.100Z,55.35
2018-06-03T05:23:51.730Z,55.50
2018-06-03T05:26:21.881Z,53.75
2018-06-03T05:28:50.814Z,59.58
2018-06-03T05:31:19.940Z,52.93
2018-06-03T05:33:49.215Z,49.33
2018-06-03T05:36:18.446Z,52.45
2018-06-03T05:38:47.731Z,53.60
2018-06-03T05:41:17.180Z,56.33
2018-06-03T05:43:46.436Z,60.60
2018-06-03T05:46:15.743Z,63.48
2018-06-03T05:48:45.448Z,57.10
2018-06-03T05:51:14.689Z,49.00
2018-06-03T05:53:43.901Z,48.42
2018-06-03T05:56:13.127Z,48.10
2018-06-03T05:58:42.753Z,53.13
2018-06-03T06:01:11.722Z,52.78
2018-06-03T06:03:40.874Z,62.25
2018-06-03T06:06:10.307Z,53.02
2018-06-03T06:08:39.549Z,52.78
2018-06-03T06:11:08.792Z,50.95
2018-06-03T06:13:38.185Z,49.65
2018-06-03T06:16:07.439Z,47.78
2018-06-03T06:18:36.641Z,47.27
2018-06-03T06:21:06.021Z,49.85
2018-06-03T06:23:35.277Z,53.30
2018-06-03T06:26:04.572Z,45.15
2018-06-03T06:28:33.843Z,40.23
2018-06-03T06:31:03.092Z,45.08
2018-06-03T06:33:32.343Z,39.45
2018-06-03T06:36:01.605Z,44.67
2018-06-03T06:38:30.880Z,37.35
2018-06-03T06:41:00.154Z,33.15
2018-06-03T06:43:29.485Z,39.95
2018-06-03T06:45:58.736Z,41.00
2018-06-03T06:48:28.426Z,41.98
2018-06-03T06:50:58.275Z,40.20
2018-06-03T06:53:27.602Z,41.85
2018-06-03T06:55:56.877Z,39.70
2018-06-03T06:58:26.112Z,40.95
2018-06-03T07:00:55.468Z,41.00
2018-06-03T07:03:24.756Z,44.33
2018-06-03T07:05:54.727Z,46.20
2018-06-03T07:08:24.020Z,39.92
2018-06-03T07:10:53.237Z,43.23
2018-06-03T07:13:22.564Z,42.62
2018-06-03T07:15:51.813Z,42.90
2018-06-03T07:18:21.229Z,42.67
2018-06-03T07:20:50.489Z,39.10
2018-06-03T07:23:20.130Z,37.90
2018-06-03T07:25:49.664Z,37.03
2018-06-03T07:28:18.969Z,39.60
2018-06-03T07:30:48.180Z,43.35
2018-06-03T07:33:17.437Z,45.38
2018-06-03T07:35:46.679Z,44.03
2018-06-03T07:38:15.990Z,37.55
2018-06-03T07:40:45.274Z,43.05
2018-06-03T07:43:14.580Z,39.40
2018-06-03T07:45:44.358Z,42.98
2018-06-03T07:48:13.645Z,42.30
2018-06-03T07:50:42.927Z,46.40
2018-06-03T07:53:12.344Z,37.03
2018-06-03T07:55:41.951Z,36.88
2018-06-03T07:58:11.392Z,35.80
2018-06-03T08:00:40.694Z,40.98
2018-06-03T08:03:10.083Z,39.42
2018-06-03T08:05:39.395Z,37.25
2018-06-03T08:08:08.685Z,37.17
2018-06-03T08:10:37.987Z,42.45
2018-06-03T08:13:07.828Z,34.00
2018-06-03T08:15:37.132Z,35.10
2018-06-03T08:18:08.043Z,32.50
2018-06-03T08:20:37.352Z,34.88
2018-06-03T08:23:06.876Z,33.95
2018-06-03T08:25:36.152Z,34.75
2018-06-03T08:28:05.462Z,29.90
2018-06-03T08:30:35.199Z,34.58
2018-06-03T08:33:04.311Z,33.50
2018-06-03T08:35:33.629Z,32.25
2018-06-03T08:38:02.864Z,33.65
2018-06-03T08:40:32.153Z,34.78
2018-06-03T08:43:01.565Z,34.10
2018-06-03T08:45:30.816Z,35.92
2018-06-03T08:48:00.137Z,36.33
2018-06-03T08:50:30.163Z,36.70
2018-06-03T08:53:00.021Z,32.85
2018-06-03T08:55:29.316Z,34.63
2018-06-03T08:57:59.163Z,37.67
2018-06-03T09:00:28.643Z,32.25
2018-06-03T09:02:57.891Z,33.78
2018-06-03T09:05:27.199Z,35.65
2018-06-03T09:07:56.504Z,39.13
2018-06-03T09:10:25.805Z,35.15
2018-06-03T09:12:55.350Z,33.78
2018-06-03T09:15:24.664Z,32.42
2018-06-03T09:17:54.037Z,30.37
2018-06-03T09:20:24.016Z,32.83
2018-06-03T09:22:53.265Z,33.78
2018-06-03T09:25:22.701Z,31.45
2018-06-03T09:27:52.348Z,37.70
2018-06-03T09:30:21.740Z,34.00
2018-06-03T09:32:51.305Z,29.82
2018-06-03T09:35:20.578Z,36.60
2018-06-03T09:37:49.833Z,35.40
2018-06-03T09:40:19.176Z,32.75
2018-06-03T09:42:49.133Z,32.03
2018-06-03T09:45:18.443Z,30.75
2018-06-03T09:47:47.780Z,32.73
2018-06-03T09:50:17.458Z,36.93
2018-06-03T09:52:46.756Z,32.45
2018-06-03T09:55:16.011Z,30.80
2018-06-03T09:57:46.059Z,30.32
2018-06-03T10:00:16.628Z,33.70
2018-06-03T10:02:45.798Z,35.45
2018-06-03T10:05:15.089Z,35.23
2018-06-03T10:07:44.304Z,40.80
2018-06-03T10:10:13.647Z,39.23
2018-06-03T10:12:43.080Z,34.92
2018-06-03T10:15:12.359Z,34.75
2018-06-03T10:17:41.645Z,37.38
2018-06-03T10:20:10.921Z,36.23
2018-06-03T10:22:40.244Z,31.17
2018-06-03T10:25:09.641Z,34.65
2018-06-03T10:27:39.575Z,36.42
2018-06-03T10:30:08.934Z,41.37
2018-06-03T10:32:38.192Z,39.65
2018-06-03T10:35:07.461Z,39.63
2018-06-03T10:37:36.690Z,38.63
2018-06-03T10:40:06.008Z,38.42
2018-06-03T10:42:35.278Z,37.25
2018-06-03T10:45:04.227Z,33.75
2018-06-03T10:47:33.470Z,33.23
2018-06-03T10:50:02.735Z,34.00
2018-06-03T10:52:32.264Z,31.23
2018-06-03T10:55:01.653Z,32.05
2018-06-03T10:57:31.428Z,28.05
2018-06-03T11:00:00.745Z,27.82
2018-06-03T11:02:30.331Z,30.43
2018-06-03T11:04:59.626Z,30.12
2018-06-03T11:07:29.059Z,27.22
2018-06-03T11:09:59.958Z,28.73
2018-06-03T11:12:29.224Z,28.87
2018-06-03T11:14:58.564Z,29.90
2018-06-03T11:17:27.885Z,32.70
2018-06-03T11:19:57.099Z,31.55
2018-06-03T11:22:26.400Z,25.25
2018-06-03T11:24:55.688Z,36.75
2018-06-03T11:27:24.959Z,30.25
2018-06-03T11:29:54.636Z,36.58
2018-06-03T11:32:24.216Z,31.52
2018-06-03T11:34:53.470Z,30.32
2018-06-03T11:37:22.731Z,28.87
2018-06-03T11:39:52.149Z,33.85
2018-06-03T11:42:22.120Z,32.48
2018-06-03T11:44:51.487Z,28.70
2018-06-03T11:47:21.358Z,29.37
2018-06-03T11:49:50.769Z,30.30
2018-06-03T11:52:20.035Z,26.42
2018-06-03T11:54:49.689Z,28.55
2018-06-03T11:57:18.975Z,27.85
2018-06-03T11:59:48.254Z,28.80
2018-06-03T12:02:18.681Z,31.05
2018-06-03T12:04:47.668Z,27.45
2018-06-03T12:07:16.880Z,27.10
2018-06-03T12:09:46.204Z,26.55
2018-06-03T12:12:15.513Z,28.75
2018-06-03T12:14:44.828Z,29.37
2018-06-03T12:17:14.153Z,28.30
2018-06-03T12:19:43.713Z,27.50
2018-06-03T12:22:13.145Z,25.75
2018-06-03T12:24:42.764Z,25.92
2018-06-03T12:27:12.604Z,26.80
2018-06-03T12:29:41.856Z,27.98
2018-06-03T12:32:11.123Z,25.80
2018-06-03T12:34:40.367Z,28.32
2018-06-03T12:37:09.699Z,31.65
2018-06-03T12:39:39.489Z,30.00
2018-06-03T12:42:08.815Z,28.77
2018-06-03T12:44:38.041Z,25.95
2018-06-03T12:47:07.304Z,23.87
2018-06-03T12:49:36.608Z,23.70
2018-06-03T12:52:06.008Z,25.45
2018-06-03T12:54:35.337Z,25.75
2018-06-03T12:57:04.979Z,26.35
2018-06-03T12:59:34.319Z,25.45
2018-06-03T13:02:03.621Z,26.50
2018-06-03T13:04:32.881Z,27.62
2018-06-03T13:07:02.163Z,24.43
2018-06-03T13:09:31.409Z,23.55
2018-06-03T13:12:00.721Z,21.45
2018-06-03T13:14:29.972Z,22.22
2018-06-03T13:16:59.306Z,22.82
2018-06-03T13:19:28.541Z,24.72
2018-06-03T13:21:57.816Z,24.47
2018-06-03T13:24:27.816Z,20.45
2018-06-03T13:26:57.109Z,21.07
2018-06-03T13:29:26.400Z,21.37
2018-06-03T13:31:55.809Z,23.70
2018-06-03T13:34:25.005Z,21.33
2018-06-03T13:36:54.315Z,21.27
2018-06-03T13:39:23.626Z,20.88
2018-06-03T13:41:53.126Z,21.62
2018-06-03T13:44:22.381Z,20.55
2018-06-03T13:46:51.669Z,20.30
2018-06-03T13:49:20.920Z,22.32
2018-06-03T13:51:50.224Z,23.85
2018-06-03T13:54:19.428Z,26.75
2018-06-03T13:56:48.802Z,24.40
2018-06-03T13:59:18.060Z,25.75
2018-06-03T14:01:47.528Z,23.95
2018-06-03T14:04:16.849Z,23.22
2018-06-03T14:06:46.146Z,23.30
2018-06-03T14:09:15.452Z,22.77
2018-06-03T14:11:44.775Z,19.30
2018-06-03T14:14:14.044Z,20.27
2018-06-03T14:16:43.403Z,16.25
2018-06-03T14:19:12.663Z,17.65
2018-06-03T14:21:41.922Z,20.95
2018-06-03T14:24:11.225Z,17.92
2018-06-03T14:26:40.451Z,15.63
2018-06-03T14:29:09.719Z,17.57
2018-06-03T14:31:39.040Z,21.17
2018-06-03T14:34:08.399Z,21.50
2018-06-03T14:36:37.761Z,19.12
2018-06-03T14:39:08.361Z,17.52
2018-06-03T14:41:37.661Z,16.05
2018-06-03T14:44:06.566Z,20.45
2018-06-03T14:46:36.556Z,17.90
2018-06-03T14:49:05.884Z,19.00
2018-06-03T14:51:35.232Z,17.70
2018-06-03T14:54:04.614Z,15.85
2018-06-03T14:56:33.877Z,16.00
2018-06-03T14:59:03.199Z,17.23
2018-06-03T15:01:32.548Z,12.88
2018-06-03T15:04:01.787Z,15.10
2018-06-03T15:06:31.020Z,13.70
2018-06-03T15:09:00.321Z,16.00
2018-06-03T15:11:29.639Z,16.25
2018-06-03T15:13:58.983Z,15.25
2018-06-03T15:16:28.448Z,14.90
2018-06-03T15:18:57.773Z,14.93
2018-06-03T15:21:27.037Z,16.35
2018-06-03T15:23:56.412Z,15.63
2018-06-03T15:26:25.676Z,16.45
2018-06-03T15:28:54.986Z,14.18
2018-06-03T15:31:24.243Z,14.28
2018-06-03T15:33:53.519Z,13.03
2018-06-03T15:36:22.723Z,14.65
2018-06-03T15:38:51.990Z,12.25
2018-06-03T15:41:21.641Z,14.07
2018-06-03T15:43:51.058Z,13.55
2018-06-03T15:46:20.608Z,15.38
2018-06-03T15:48:49.911Z,14.60
2018-06-03T15:51:19.180Z,13.95
2018-06-03T15:53:48.511Z,13.98
2018-06-03T15:56:17.869Z,14.33
2018-06-03T15:58:52.610Z,12.07
2018-06-03T16:01:21.846Z,10.50
2018-06-03T16:03:51.183Z,11.40
2018-06-03T16:06:20.440Z,10.48
2018-06-03T16:08:49.745Z,11.45
2018-06-03T16:11:19.375Z,11.03
2018-06-03T16:13:48.680Z,11.95
2018-06-03T16:16:18.047Z,12.00
2018-06-03T16:18:47.251Z,9.58
2018-06-03T16:21:16.524Z,10.88
2018-06-03T16:23:45.829Z,10.43
2018-06-03T16:26:16.069Z,10.00
2018-06-03T16:28:45.341Z,10.40
2018-06-03T16:31:14.620Z,9.58
2018-06-03T16:33:43.981Z,8.93
2018-06-03T16:36:13.292Z,8.55
2018-06-03T16:38:42.644Z,10.75
2018-06-03T16:41:11.940Z,9.73
2018-06-03T16:43:41.269Z,10.15
2018-06-03T16:46:10.553Z,11.38
2018-06-03T16:48:39.914Z,10.48
2018-06-03T16:51:09.265Z,11.08
2018-06-03T16:53:38.555Z,10.98
2018-06-03T16:56:07.811Z,9.65
2018-06-03T16:58:37.168Z,9.43
2018-06-03T17:01:07.656Z,9.45
2018-06-03T17:03:36.961Z,11.12
2018-06-03T17:06:07.342Z,10.23
2018-06-03T17:08:36.708Z,8.43
2018-06-03T17:11:06.028Z,9.83
2018-06-03T17:13:35.448Z,10.20
2018-06-03T17:16:04.757Z,10.15
2018-06-03T17:18:34.131Z,9.10
2018-06-03T17:21:03.121Z,9.40
2018-06-03T17:23:32.383Z,10.28
2018-06-03T17:26:01.621Z,9.33
2018-06-03T17:28:30.896Z,9.53
2018-06-03T17:31:00.211Z,9.83
2018-06-03T17:33:29.544Z,7.97
2018-06-03T17:35:58.803Z,6.72
2018-06-03T17:38:28.077Z,7.80
2018-06-03T17:40:57.411Z,7.28
2018-06-03T17:43:26.725Z,8.03
2018-06-03T17:45:56.301Z,7.30
2018-06-03T17:48:25.596Z,6.67
2018-06-03T17:50:54.912Z,6.62
2018-06-03T17:53:24.257Z,6.47
2018-06-03T17:55:53.558Z,8.10
2018-06-03T17:58:22.809Z,8.58
2018-06-03T18:00:52.053Z,6.42
2018-06-03T18:03:21.278Z,6.90
2018-06-03T18:05:50.605Z,7.15
2018-06-03T18:08:19.878Z,8.00
2018-06-03T18:10:49.159Z,7.97
2018-06-03T18:13:18.421Z,7.92
2018-06-03T18:15:47.656Z,8.73
2018-06-03T18:18:16.957Z,9.58
2018-06-03T18:20:46.329Z,7.83
2018-06-03T18:23:15.637Z,7.78
2018-06-03T18:25:44.976Z,7.70
2018-06-03T18:28:15.003Z,8.35
2018-06-03T18:30:45.050Z,7.65
2018-06-03T18:33:14.429Z,6.70
2018-06-03T18:35:43.730Z,7.03
2018-06-03T18:38:13.042Z,6.53
2018-06-03T18:40:42.734Z,10.23
2018-06-03T18:43:12.094Z,6.37
2018-06-03T18:45:41.448Z,7.60
2018-06-03T18:48:10.782Z,7.03
2018-06-03T18:50:40.124Z,6.85
2018-06-03T18:53:09.456Z,7.58
2018-06-03T18:55:39.136Z,7.05
2018-06-03T18:58:09.217Z,6.80
2018-06-03T19:00:39.541Z,7.33
2018-06-03T19:03:08.932Z,7.30
2018-06-03T19:05:38.278Z,7.35
2018-06-03T19:08:07.743Z,7.83
2018-06-03T19:10:37.237Z,8.38
2018-06-03T19:13:06.932Z,8.00
2018-06-03T19:15:36.321Z,7.90
2018-06-03T19:18:06.025Z,7.62
2018-06-03T19:20:35.767Z,8.35
2018-06-03T19:23:05.139Z,8.05
2018-06-03T19:25:34.550Z,8.23
2018-06-03T19:28:04.040Z,8.15
2018-06-03T19:30:33.728Z,8.75
2018-06-03T19:33:03.081Z,8.15
2018-06-03T19:35:32.537Z,7.70
2018-06-03T19:38:01.975Z,8.10
2018-06-03T19:40:31.337Z,8.85
2018-06-03T19:43:00.658Z,8.55
2018-06-03T19:45:29.963Z,7.95
2018-06-03T19:47:59.277Z,8.78
2018-06-03T19:50:28.586Z,8.93
2018-06-03T19:52:57.892Z,8.55
2018-06-03T19:55:27.761Z,8.88
2018-06-03T19:57:57.776Z,9.43
2018-06-03T20:00:27.569Z,8.25
2018-06-03T20:02:56.768Z,9.25
2018-06-03T20:05:26.188Z,8.63
2018-06-03T20:07:55.690Z,9.43
2018-06-03T20:10:25.043Z,8.18
2018-06-03T20:12:54.581Z,8.38
2018-06-03T20:15:23.901Z,9.05
2018-06-03T20:17:54.220Z,8.78
2018-06-03T20:20:23.531Z,9.35
2018-06-03T20:22:52.800Z,8.38
2018-06-03T20:25:22.228Z,9.40
2018-06-03T20:27:51.512Z,8.75
2018-06-03T20:30:20.796Z,9.30
2018-06-03T20:32:50.216Z,8.95
2018-06-03T20:35:19.528Z,9.03
2018-06-03T20:37:48.785Z,9.08
2018-06-03T20:40:18.065Z,9.30
2018-06-03T20:42:48.005Z,9.45
2018-06-03T20:45:17.372Z,9.00
2018-06-03T20:47:46.639Z,9.70
2018-06-03T20:50:15.922Z,10.15
2018-06-03T20:52:45.279Z,9.70
2018-06-03T20:55:14.567Z,9.00
2018-06-03T20:57:43.868Z,9.78
2018-06-03T21:00:13.889Z,8.73
2018-06-03T21:02:43.692Z,10.20
2018-06-03T21:05:12.996Z,9.88
2018-06-03T21:07:43.014Z,9.00
2018-06-03T21:10:12.364Z,9.48
2018-06-03T21:12:41.651Z,10.80
2018-06-03T21:15:11.551Z,10.80
2018-06-03T21:17:40.873Z,10.40
2018-06-03T21:20:10.134Z,9.60
2018-06-03T21:22:39.433Z,10.43
2018-06-03T21:25:08.721Z,9.53
2018-06-03T21:27:38.012Z,9.28
2018-06-03T21:30:06.957Z,9.38
2018-06-03T21:32:36.088Z,10.35
2018-06-03T21:35:06.273Z,8.78
2018-06-03T21:37:35.625Z,9.85
2018-06-03T21:40:04.944Z,8.75
2018-06-03T21:42:34.254Z,9.93
2018-06-03T21:45:03.545Z,9.53
2018-06-03T21:47:32.511Z,9.43
2018-06-03T21:50:01.625Z,9.00
2018-06-03T21:52:30.974Z,11.22
2018-06-03T21:55:00.371Z,10.72
2018-06-03T21:57:29.630Z,11.03
2018-06-03T21:59:58.991Z,10.82
2018-06-03T22:02:28.253Z,10.15
2018-06-03T22:04:57.492Z,8.98
2018-06-03T22:07:26.732Z,9.73
2018-06-03T22:09:56.316Z,9.68
2018-06-03T22:12:25.663Z,9.33
2018-06-03T22:14:55.716Z,8.98
2018-06-03T22:17:25.164Z,11.05
2018-06-03T22:19:54.424Z,11.00
2018-06-03T22:22:23.712Z,10.63
2018-06-03T22:24:53.631Z,9.43
2018-06-03T22:27:22.909Z,11.12
2018-06-03T22:29:52.136Z,12.07
2018-06-03T22:32:21.431Z,10.88
2018-06-03T22:34:50.692Z,10.98
2018-06-03T22:37:19.964Z,10.60
2018-06-03T22:39:49.271Z,12.10
2018-06-03T22:42:18.252Z,12.03
2018-06-03T22:44:47.531Z,12.93
2018-06-03T22:47:16.812Z,13.70
2018-06-03T22:49:46.139Z,12.20
2018-06-03T22:52:15.479Z,11.75
2018-06-03T22:54:44.732Z,12.65
2018-06-03T22:57:52.072Z,13.95
2018-06-03T23:00:22.327Z,13.78
2018-06-03T23:02:56.955Z,11.68
2018-06-03T23:05:26.237Z,12.28
2018-06-03T23:07:55.534Z,14.43
2018-06-03T23:10:24.824Z,15.25
2018-06-03T23:12:54.251Z,14.40
2018-06-03T23:15:23.390Z,15.58
2018-06-03T23:17:52.279Z,14.90
2018-06-03T23:20:21.444Z,14.78
2018-06-03T23:22:50.436Z,12.78
2018-06-03T23:25:20.368Z,14.98
2018-06-03T23:27:49.600Z,12.58
2018-06-03T23:30:18.895Z,12.90
2018-06-03T23:32:48.757Z,13.45
2018-06-03T23:35:18.147Z,13.00
2018-06-03T23:37:47.447Z,12.90
2018-06-03T23:40:16.727Z,12.37
2018-06-03T23:42:46.108Z,12.00
2018-06-03T23:45:15.448Z,13.70
2018-06-03T23:47:44.688Z,12.23
2018-06-03T23:50:13.992Z,13.43
2018-06-03T23:52:43.765Z,13.60
2018-06-03T23:55:13.041Z,12.93
2018-06-03T23:57:42.252Z,13.32
